sensor_id;sensor_type;location;lat;lon;timestamp;P1;durP1;ratioP1;P2;durP2;ratioP2
53519;SDS011;39397;53.204;5.778;2022-07-17T00:00:51;8.85;;;2.58;;
53519;SDS011;39397;53.204;5.778;2022-07-17T00:03:17;8.30;;;2.90;;
53519;SDS011;39397;53.204;5.778;2022-07-17T00:05:43;11.85;;;3.92;;
53519;SDS011;39397;53.204;5.778;2022-07-17T00:08:09;10.45;;;4.15;;
53519;SDS011;39397;53.204;5.778;2022-07-17T00:10:37;8.52;;;3.80;;
53519;SDS011;39397;53.204;5.778;2022-07-17T00:13:05;9.48;;;3.72;;
53519;SDS011;39397;53.204;5.778;2022-07-17T00:15:31;11.15;;;3.40;;
53519;SDS011;39397;53.204;5.778;2022-07-17T00:17:57;7.22;;;2.88;;
53519;SDS011;39397;53.204;5.778;2022-07-17T00:20:24;7.50;;;3.25;;
53519;SDS011;39397;53.204;5.778;2022-07-17T00:22:51;8.52;;;4.05;;
53519;SDS011;39397;53.204;5.778;2022-07-17T00:25:19;7.97;;;4.25;;
53519;SDS011;39397;53.204;5.778;2022-07-17T00:27:45;6.20;;;3.30;;
53519;SDS011;39397;53.204;5.778;2022-07-17T00:30:10;6.25;;;2.63;;
53519;SDS011;39397;53.204;5.778;2022-07-17T00:32:37;8.32;;;3.28;;
53519;SDS011;39397;53.204;5.778;2022-07-17T00:35:04;7.10;;;3.38;;
53519;SDS011;39397;53.204;5.778;2022-07-17T00:37:30;6.40;;;3.13;;
53519;SDS011;39397;53.204;5.778;2022-07-17T00:39:55;9.75;;;3.35;;
53519;SDS011;39397;53.204;5.778;2022-07-17T00:42:21;10.77;;;3.15;;
53519;SDS011;39397;53.204;5.778;2022-07-17T00:44:47;5.97;;;3.17;;
53519;SDS011;39397;53.204;5.778;2022-07-17T00:47:13;6.53;;;3.30;;
53519;SDS011;39397;53.204;5.778;2022-07-17T00:49:39;6.95;;;3.10;;
53519;SDS011;39397;53.204;5.778;2022-07-17T00:52:06;9.52;;;3.72;;
53519;SDS011;39397;53.204;5.778;2022-07-17T00:54:34;9.25;;;3.33;;
53519;SDS011;39397;53.204;5.778;2022-07-17T00:57:10;7.32;;;3.05;;
53519;SDS011;39397;53.204;5.778;2022-07-17T01:02:04;7.18;;;2.95;;
53519;SDS011;39397;53.204;5.778;2022-07-17T01:04:35;8.20;;;3.20;;
53519;SDS011;39397;53.204;5.778;2022-07-17T01:07:02;9.57;;;3.28;;
53519;SDS011;39397;53.204;5.778;2022-07-17T01:09:29;5.47;;;2.63;;
53519;SDS011;39397;53.204;5.778;2022-07-17T01:11:55;8.30;;;2.78;;
53519;SDS011;39397;53.204;5.778;2022-07-17T01:14:22;7.05;;;2.95;;
53519;SDS011;39397;53.204;5.778;2022-07-17T01:16:49;7.53;;;3.30;;
53519;SDS011;39397;53.204;5.778;2022-07-17T01:19:15;7.78;;;3.42;;
53519;SDS011;39397;53.204;5.778;2022-07-17T01:21:42;8.15;;;3.38;;
53519;SDS011;39397;53.204;5.778;2022-07-17T01:24:09;8.98;;;3.33;;
53519;SDS011;39397;53.204;5.778;2022-07-17T01:26:36;9.75;;;3.95;;
53519;SDS011;39397;53.204;5.778;2022-07-17T01:29:02;10.00;;;3.55;;
53519;SDS011;39397;53.204;5.778;2022-07-17T01:31:28;6.75;;;3.53;;
53519;SDS011;39397;53.204;5.778;2022-07-17T01:33:54;9.60;;;3.78;;
53519;SDS011;39397;53.204;5.778;2022-07-17T01:36:21;8.07;;;3.63;;
53519;SDS011;39397;53.204;5.778;2022-07-17T01:38:48;8.27;;;4.28;;
53519;SDS011;39397;53.204;5.778;2022-07-17T01:41:14;7.53;;;4.00;;
53519;SDS011;39397;53.204;5.778;2022-07-17T01:43:39;5.55;;;3.80;;
53519;SDS011;39397;53.204;5.778;2022-07-17T01:46:05;8.32;;;3.63;;
53519;SDS011;39397;53.204;5.778;2022-07-17T01:48:31;7.53;;;4.00;;
53519;SDS011;39397;53.204;5.778;2022-07-17T01:50:56;7.85;;;3.22;;
53519;SDS011;39397;53.204;5.778;2022-07-17T01:53:22;7.95;;;3.28;;
53519;SDS011;39397;53.204;5.778;2022-07-17T01:55:48;7.25;;;3.05;;
53519;SDS011;39397;53.204;5.778;2022-07-17T01:58:14;8.45;;;3.17;;
53519;SDS011;39397;53.204;5.778;2022-07-17T02:00:40;7.05;;;3.10;;
53519;SDS011;39397;53.204;5.778;2022-07-17T02:03:06;6.30;;;3.00;;
53519;SDS011;39397;53.204;5.778;2022-07-17T02:05:32;9.30;;;3.00;;
53519;SDS011;39397;53.204;5.778;2022-07-17T02:07:58;5.60;;;3.15;;
53519;SDS011;39397;53.204;5.778;2022-07-17T02:10:24;6.32;;;2.80;;
53519;SDS011;39397;53.204;5.778;2022-07-17T02:12:51;7.22;;;3.10;;
53519;SDS011;39397;53.204;5.778;2022-07-17T02:15:16;7.03;;;3.20;;
53519;SDS011;39397;53.204;5.778;2022-07-17T02:17:42;11.02;;;3.33;;
53519;SDS011;39397;53.204;5.778;2022-07-17T02:20:08;10.77;;;3.10;;
53519;SDS011;39397;53.204;5.778;2022-07-17T02:22:36;7.03;;;3.20;;
53519;SDS011;39397;53.204;5.778;2022-07-17T02:25:02;7.78;;;2.53;;
53519;SDS011;39397;53.204;5.778;2022-07-17T02:27:30;9.13;;;3.20;;
53519;SDS011;39397;53.204;5.778;2022-07-17T02:29:56;9.57;;;2.40;;
53519;SDS011;39397;53.204;5.778;2022-07-17T02:32:22;7.60;;;3.03;;
53519;SDS011;39397;53.204;5.778;2022-07-17T02:34:48;7.03;;;3.10;;
53519;SDS011;39397;53.204;5.778;2022-07-17T02:37:14;9.32;;;3.78;;
53519;SDS011;39397;53.204;5.778;2022-07-17T02:39:40;8.30;;;3.30;;
53519;SDS011;39397;53.204;5.778;2022-07-17T02:42:26;8.57;;;3.28;;
53519;SDS011;39397;53.204;5.778;2022-07-17T02:44:54;7.70;;;3.20;;
53519;SDS011;39397;53.204;5.778;2022-07-17T02:47:27;8.55;;;2.90;;
53519;SDS011;39397;53.204;5.778;2022-07-17T02:49:54;8.07;;;2.70;;
53519;SDS011;39397;53.204;5.778;2022-07-17T02:52:20;9.38;;;2.90;;
53519;SDS011;39397;53.204;5.778;2022-07-17T02:54:46;9.02;;;2.67;;
53519;SDS011;39397;53.204;5.778;2022-07-17T02:57:12;6.75;;;2.78;;
53519;SDS011;39397;53.204;5.778;2022-07-17T02:59:38;10.48;;;2.90;;
53519;SDS011;39397;53.204;5.778;2022-07-17T03:02:05;8.40;;;2.90;;
53519;SDS011;39397;53.204;5.778;2022-07-17T03:04:30;6.30;;;3.00;;
53519;SDS011;39397;53.204;5.778;2022-07-17T03:06:56;6.97;;;2.92;;
53519;SDS011;39397;53.204;5.778;2022-07-17T03:09:22;8.07;;;3.20;;
53519;SDS011;39397;53.204;5.778;2022-07-17T03:11:48;9.60;;;3.10;;
53519;SDS011;39397;53.204;5.778;2022-07-17T03:14:13;6.03;;;2.70;;
53519;SDS011;39397;53.204;5.778;2022-07-17T03:16:39;8.07;;;2.85;;
53519;SDS011;39397;53.204;5.778;2022-07-17T03:19:05;8.20;;;2.72;;
53519;SDS011;39397;53.204;5.778;2022-07-17T03:21:30;6.95;;;2.67;;
53519;SDS011;39397;53.204;5.778;2022-07-17T03:23:56;8.52;;;2.75;;
53519;SDS011;39397;53.204;5.778;2022-07-17T03:26:22;7.78;;;2.83;;
53519;SDS011;39397;53.204;5.778;2022-07-17T03:28:47;10.07;;;3.00;;
53519;SDS011;39397;53.204;5.778;2022-07-17T03:31:13;8.32;;;3.22;;
53519;SDS011;39397;53.204;5.778;2022-07-17T03:33:39;8.10;;;2.70;;
53519;SDS011;39397;53.204;5.778;2022-07-17T03:36:05;9.48;;;2.45;;
53519;SDS011;39397;53.204;5.778;2022-07-17T03:38:31;9.32;;;3.00;;
53519;SDS011;39397;53.204;5.778;2022-07-17T03:40:57;6.93;;;2.60;;
53519;SDS011;39397;53.204;5.778;2022-07-17T03:43:23;7.45;;;2.75;;
53519;SDS011;39397;53.204;5.778;2022-07-17T03:45:48;8.77;;;2.70;;
53519;SDS011;39397;53.204;5.778;2022-07-17T03:48:14;5.43;;;2.25;;
53519;SDS011;39397;53.204;5.778;2022-07-17T03:50:40;7.38;;;2.58;;
53519;SDS011;39397;53.204;5.778;2022-07-17T03:53:06;5.13;;;2.55;;
53519;SDS011;39397;53.204;5.778;2022-07-17T03:55:32;5.32;;;2.53;;
53519;SDS011;39397;53.204;5.778;2022-07-17T03:57:58;6.20;;;2.40;;
53519;SDS011;39397;53.204;5.778;2022-07-17T04:00:24;6.38;;;2.42;;
53519;SDS011;39397;53.204;5.778;2022-07-17T04:02:50;6.72;;;2.15;;
53519;SDS011;39397;53.204;5.778;2022-07-17T04:05:16;7.47;;;2.53;;
53519;SDS011;39397;53.204;5.778;2022-07-17T04:07:41;5.15;;;2.10;;
53519;SDS011;39397;53.204;5.778;2022-07-17T04:10:08;8.23;;;2.35;;
53519;SDS011;39397;53.204;5.778;2022-07-17T04:12:36;9.30;;;2.45;;
53519;SDS011;39397;53.204;5.778;2022-07-17T04:15:02;7.40;;;1.70;;
53519;SDS011;39397;53.204;5.778;2022-07-17T04:17:29;5.65;;;2.20;;
53519;SDS011;39397;53.204;5.778;2022-07-17T04:19:55;7.85;;;2.00;;
53519;SDS011;39397;53.204;5.778;2022-07-17T04:22:21;11.90;;;2.38;;
53519;SDS011;39397;53.204;5.778;2022-07-17T04:24:46;5.32;;;1.85;;
53519;SDS011;39397;53.204;5.778;2022-07-17T04:27:12;7.50;;;1.90;;
53519;SDS011;39397;53.204;5.778;2022-07-17T04:29:38;5.55;;;2.00;;
53519;SDS011;39397;53.204;5.778;2022-07-17T04:32:04;6.65;;;2.10;;
53519;SDS011;39397;53.204;5.778;2022-07-17T04:34:30;10.20;;;3.05;;
53519;SDS011;39397;53.204;5.778;2022-07-17T04:36:58;9.93;;;2.97;;
53519;SDS011;39397;53.204;5.778;2022-07-17T04:39:24;7.70;;;2.05;;
53519;SDS011;39397;53.204;5.778;2022-07-17T04:41:49;9.13;;;2.15;;
53519;SDS011;39397;53.204;5.778;2022-07-17T04:44:16;6.88;;;2.28;;
53519;SDS011;39397;53.204;5.778;2022-07-17T04:46:41;5.78;;;2.78;;
53519;SDS011;39397;53.204;5.778;2022-07-17T04:49:07;8.20;;;1.90;;
53519;SDS011;39397;53.204;5.778;2022-07-17T04:51:33;6.95;;;1.80;;
53519;SDS011;39397;53.204;5.778;2022-07-17T04:53:59;7.28;;;1.83;;
53519;SDS011;39397;53.204;5.778;2022-07-17T04:56:25;6.38;;;1.90;;
53519;SDS011;39397;53.204;5.778;2022-07-17T04:58:50;6.60;;;2.08;;
53519;SDS011;39397;53.204;5.778;2022-07-17T05:01:16;8.45;;;1.85;;
53519;SDS011;39397;53.204;5.778;2022-07-17T05:03:42;8.32;;;1.85;;
53519;SDS011;39397;53.204;5.778;2022-07-17T05:06:07;11.77;;;3.50;;
53519;SDS011;39397;53.204;5.778;2022-07-17T05:08:34;9.52;;;2.58;;
53519;SDS011;39397;53.204;5.778;2022-07-17T05:11:00;8.13;;;2.08;;
53519;SDS011;39397;53.204;5.778;2022-07-17T05:13:26;8.85;;;2.45;;
53519;SDS011;39397;53.204;5.778;2022-07-17T05:15:52;9.77;;;2.03;;
53519;SDS011;39397;53.204;5.778;2022-07-17T05:18:17;5.57;;;1.80;;
53519;SDS011;39397;53.204;5.778;2022-07-17T05:20:43;4.40;;;2.10;;
53519;SDS011;39397;53.204;5.778;2022-07-17T05:23:09;6.00;;;1.70;;
53519;SDS011;39397;53.204;5.778;2022-07-17T05:25:35;6.30;;;2.15;;
53519;SDS011;39397;53.204;5.778;2022-07-17T05:28:01;12.00;;;2.10;;
53519;SDS011;39397;53.204;5.778;2022-07-17T05:30:27;4.43;;;1.60;;
53519;SDS011;39397;53.204;5.778;2022-07-17T05:32:53;8.02;;;1.83;;
53519;SDS011;39397;53.204;5.778;2022-07-17T05:35:19;8.68;;;2.00;;
53519;SDS011;39397;53.204;5.778;2022-07-17T05:37:46;5.30;;;1.65;;
53519;SDS011;39397;53.204;5.778;2022-07-17T05:40:11;4.78;;;2.15;;
53519;SDS011;39397;53.204;5.778;2022-07-17T05:42:37;5.80;;;1.63;;
53519;SDS011;39397;53.204;5.778;2022-07-17T05:45:03;8.88;;;1.80;;
53519;SDS011;39397;53.204;5.778;2022-07-17T05:47:29;6.82;;;1.88;;
53519;SDS011;39397;53.204;5.778;2022-07-17T05:49:55;8.10;;;2.17;;
53519;SDS011;39397;53.204;5.778;2022-07-17T05:52:21;6.65;;;1.85;;
53519;SDS011;39397;53.204;5.778;2022-07-17T05:54:47;7.05;;;1.80;;
53519;SDS011;39397;53.204;5.778;2022-07-17T05:57:13;7.93;;;1.60;;
53519;SDS011;39397;53.204;5.778;2022-07-17T05:59:38;7.75;;;2.10;;
53519;SDS011;39397;53.204;5.778;2022-07-17T06:02:04;6.22;;;1.52;;
53519;SDS011;39397;53.204;5.778;2022-07-17T06:04:38;7.35;;;1.70;;
53519;SDS011;39397;53.204;5.778;2022-07-17T06:07:04;5.63;;;1.60;;
53519;SDS011;39397;53.204;5.778;2022-07-17T06:09:29;10.93;;;2.08;;
53519;SDS011;39397;53.204;5.778;2022-07-17T06:11:55;8.20;;;1.70;;
53519;SDS011;39397;53.204;5.778;2022-07-17T06:14:24;6.55;;;1.42;;
53519;SDS011;39397;53.204;5.778;2022-07-17T06:16:50;5.18;;;1.20;;
53519;SDS011;39397;53.204;5.778;2022-07-17T06:19:16;5.70;;;1.50;;
53519;SDS011;39397;53.204;5.778;2022-07-17T06:21:41;6.07;;;1.60;;
53519;SDS011;39397;53.204;5.778;2022-07-17T06:24:07;6.10;;;1.42;;
53519;SDS011;39397;53.204;5.778;2022-07-17T06:26:33;6.10;;;1.27;;
53519;SDS011;39397;53.204;5.778;2022-07-17T06:28:58;4.22;;;1.38;;
53519;SDS011;39397;53.204;5.778;2022-07-17T06:31:24;6.70;;;1.85;;
53519;SDS011;39397;53.204;5.778;2022-07-17T06:33:50;8.75;;;1.35;;
53519;SDS011;39397;53.204;5.778;2022-07-17T06:36:16;8.48;;;1.40;;
53519;SDS011;39397;53.204;5.778;2022-07-17T06:38:41;7.70;;;1.73;;
53519;SDS011;39397;53.204;5.778;2022-07-17T06:41:07;6.00;;;1.48;;
53519;SDS011;39397;53.204;5.778;2022-07-17T06:43:33;7.05;;;1.30;;
53519;SDS011;39397;53.204;5.778;2022-07-17T06:45:58;4.85;;;1.30;;
53519;SDS011;39397;53.204;5.778;2022-07-17T06:48:24;6.72;;;1.50;;
53519;SDS011;39397;53.204;5.778;2022-07-17T06:50:50;4.82;;;1.58;;
53519;SDS011;39397;53.204;5.778;2022-07-17T06:53:16;5.07;;;1.30;;
53519;SDS011;39397;53.204;5.778;2022-07-17T06:55:41;6.88;;;1.38;;
53519;SDS011;39397;53.204;5.778;2022-07-17T06:58:07;7.93;;;1.58;;
53519;SDS011;39397;53.204;5.778;2022-07-17T07:00:33;6.05;;;1.20;;
53519;SDS011;39397;53.204;5.778;2022-07-17T07:02:59;3.65;;;1.15;;
53519;SDS011;39397;53.204;5.778;2022-07-17T07:05:25;5.30;;;1.10;;
53519;SDS011;39397;53.204;5.778;2022-07-17T07:07:51;6.07;;;1.30;;
53519;SDS011;39397;53.204;5.778;2022-07-17T07:10:16;4.40;;;1.40;;
53519;SDS011;39397;53.204;5.778;2022-07-17T07:12:42;5.78;;;1.15;;
53519;SDS011;39397;53.204;5.778;2022-07-17T07:15:08;7.57;;;1.75;;
53519;SDS011;39397;53.204;5.778;2022-07-17T07:17:34;6.45;;;1.30;;
53519;SDS011;39397;53.204;5.778;2022-07-17T07:20:01;6.05;;;1.77;;
53519;SDS011;39397;53.204;5.778;2022-07-17T07:22:29;9.07;;;1.58;;
53519;SDS011;39397;53.204;5.778;2022-07-17T07:24:55;4.53;;;1.02;;
53519;SDS011;39397;53.204;5.778;2022-07-17T07:27:21;7.68;;;1.75;;
53519;SDS011;39397;53.204;5.778;2022-07-17T07:29:46;6.65;;;1.20;;
53519;SDS011;39397;53.204;5.778;2022-07-17T07:32:12;5.63;;;1.40;;
53519;SDS011;39397;53.204;5.778;2022-07-17T07:34:38;6.68;;;1.10;;
53519;SDS011;39397;53.204;5.778;2022-07-17T07:37:03;5.43;;;0.90;;
53519;SDS011;39397;53.204;5.778;2022-07-17T07:39:29;3.92;;;0.90;;
53519;SDS011;39397;53.204;5.778;2022-07-17T07:41:55;3.38;;;1.30;;
53519;SDS011;39397;53.204;5.778;2022-07-17T07:44:20;4.72;;;1.27;;
53519;SDS011;39397;53.204;5.778;2022-07-17T07:46:46;6.18;;;1.27;;
53519;SDS011;39397;53.204;5.778;2022-07-17T07:49:12;6.10;;;1.08;;
53519;SDS011;39397;53.204;5.778;2022-07-17T07:51:37;5.05;;;1.05;;
53519;SDS011;39397;53.204;5.778;2022-07-17T07:54:03;5.07;;;1.10;;
53519;SDS011;39397;53.204;5.778;2022-07-17T07:56:29;4.82;;;1.00;;
53519;SDS011;39397;53.204;5.778;2022-07-17T07:58:54;5.72;;;1.13;;
53519;SDS011;39397;53.204;5.778;2022-07-17T08:01:20;6.45;;;1.25;;
53519;SDS011;39397;53.204;5.778;2022-07-17T08:03:46;5.28;;;1.17;;
53519;SDS011;39397;53.204;5.778;2022-07-17T08:06:11;6.45;;;1.10;;
53519;SDS011;39397;53.204;5.778;2022-07-17T08:08:39;6.68;;;1.65;;
53519;SDS011;39397;53.204;5.778;2022-07-17T08:11:05;4.57;;;1.10;;
53519;SDS011;39397;53.204;5.778;2022-07-17T08:13:31;6.65;;;1.33;;
53519;SDS011;39397;53.204;5.778;2022-07-17T08:15:57;4.13;;;0.82;;
53519;SDS011;39397;53.204;5.778;2022-07-17T08:18:25;5.13;;;1.20;;
53519;SDS011;39397;53.204;5.778;2022-07-17T08:20:52;3.33;;;0.85;;
53519;SDS011;39397;53.204;5.778;2022-07-17T08:23:18;6.13;;;0.88;;
53519;SDS011;39397;53.204;5.778;2022-07-17T08:25:44;5.57;;;0.88;;
53519;SDS011;39397;53.204;5.778;2022-07-17T08:28:12;5.53;;;0.93;;
53519;SDS011;39397;53.204;5.778;2022-07-17T08:30:42;2.70;;;0.73;;
53519;SDS011;39397;53.204;5.778;2022-07-17T08:33:08;3.15;;;1.10;;
53519;SDS011;39397;53.204;5.778;2022-07-17T08:35:35;4.75;;;0.65;;
53519;SDS011;39397;53.204;5.778;2022-07-17T08:38:02;4.40;;;0.80;;
53519;SDS011;39397;53.204;5.778;2022-07-17T08:40:30;8.43;;;2.03;;
53519;SDS011;39397;53.204;5.778;2022-07-17T08:42:58;3.33;;;0.82;;
53519;SDS011;39397;53.204;5.778;2022-07-17T08:45:25;4.75;;;1.45;;
53519;SDS011;39397;53.204;5.778;2022-07-17T08:47:51;3.25;;;0.90;;
53519;SDS011;39397;53.204;5.778;2022-07-17T08:50:21;4.70;;;1.10;;
53519;SDS011;39397;53.204;5.778;2022-07-17T08:52:48;4.50;;;1.23;;
53519;SDS011;39397;53.204;5.778;2022-07-17T08:55:15;6.78;;;0.93;;
53519;SDS011;39397;53.204;5.778;2022-07-17T08:57:41;4.35;;;1.05;;
53519;SDS011;39397;53.204;5.778;2022-07-17T09:00:09;5.43;;;1.50;;
53519;SDS011;39397;53.204;5.778;2022-07-17T09:02:39;6.30;;;1.02;;
53519;SDS011;39397;53.204;5.778;2022-07-17T09:05:06;5.80;;;1.15;;
53519;SDS011;39397;53.204;5.778;2022-07-17T09:07:32;4.80;;;1.00;;
53519;SDS011;39397;53.204;5.778;2022-07-17T09:09:58;6.63;;;1.45;;
53519;SDS011;39397;53.204;5.778;2022-07-17T09:12:25;3.40;;;1.08;;
53519;SDS011;39397;53.204;5.778;2022-07-17T09:14:52;3.10;;;1.15;;
53519;SDS011;39397;53.204;5.778;2022-07-17T09:17:18;3.45;;;0.85;;
53519;SDS011;39397;53.204;5.778;2022-07-17T09:19:44;4.75;;;1.02;;
53519;SDS011;39397;53.204;5.778;2022-07-17T09:24:56;2.60;;;0.98;;
53519;SDS011;39397;53.204;5.778;2022-07-17T09:29:50;5.50;;;1.30;;
53519;SDS011;39397;53.204;5.778;2022-07-17T09:32:17;5.00;;;1.13;;
53519;SDS011;39397;53.204;5.778;2022-07-17T09:34:49;5.18;;;1.23;;
53519;SDS011;39397;53.204;5.778;2022-07-17T09:37:15;3.47;;;0.90;;
53519;SDS011;39397;53.204;5.778;2022-07-17T09:39:42;3.40;;;1.10;;
53519;SDS011;39397;53.204;5.778;2022-07-17T09:42:08;3.60;;;0.80;;
53519;SDS011;39397;53.204;5.778;2022-07-17T09:47:29;2.17;;;1.25;;
53519;SDS011;39397;53.204;5.778;2022-07-17T09:49:56;2.85;;;1.00;;
53519;SDS011;39397;53.204;5.778;2022-07-17T09:52:24;6.88;;;1.48;;
53519;SDS011;39397;53.204;5.778;2022-07-17T09:54:52;4.97;;;1.00;;
53519;SDS011;39397;53.204;5.778;2022-07-17T09:57:20;3.60;;;1.10;;
53519;SDS011;39397;53.204;5.778;2022-07-17T09:59:49;1.92;;;1.00;;
53519;SDS011;39397;53.204;5.778;2022-07-17T10:02:19;4.70;;;1.30;;
53519;SDS011;39397;53.204;5.778;2022-07-17T10:04:46;3.22;;;1.02;;
53519;SDS011;39397;53.204;5.778;2022-07-17T10:07:12;5.20;;;0.90;;
53519;SDS011;39397;53.204;5.778;2022-07-17T10:09:38;5.07;;;1.52;;
53519;SDS011;39397;53.204;5.778;2022-07-17T10:12:05;3.13;;;1.00;;
53519;SDS011;39397;53.204;5.778;2022-07-17T10:14:31;5.38;;;1.00;;
53519;SDS011;39397;53.204;5.778;2022-07-17T10:17:05;3.67;;;1.23;;
53519;SDS011;39397;53.204;5.778;2022-07-17T10:19:43;3.63;;;0.98;;
53519;SDS011;39397;53.204;5.778;2022-07-17T10:22:13;5.78;;;1.30;;
53519;SDS011;39397;53.204;5.778;2022-07-17T10:24:46;4.85;;;1.20;;
53519;SDS011;39397;53.204;5.778;2022-07-17T10:27:27;4.03;;;1.30;;
53519;SDS011;39397;53.204;5.778;2022-07-17T10:32:29;5.28;;;1.15;;
53519;SDS011;39397;53.204;5.778;2022-07-17T10:35:02;2.60;;;1.02;;
53519;SDS011;39397;53.204;5.778;2022-07-17T10:37:38;5.18;;;1.13;;
53519;SDS011;39397;53.204;5.778;2022-07-17T10:45:33;3.55;;;0.95;;
53519;SDS011;39397;53.204;5.778;2022-07-17T10:50:30;5.03;;;1.20;;
53519;SDS011;39397;53.204;5.778;2022-07-17T10:53:14;3.55;;;1.20;;
53519;SDS011;39397;53.204;5.778;2022-07-17T11:03:29;5.53;;;1.60;;
53519;SDS011;39397;53.204;5.778;2022-07-17T11:09:09;3.72;;;1.20;;
53519;SDS011;39397;53.204;5.778;2022-07-17T11:14:17;3.28;;;1.10;;
53519;SDS011;39397;53.204;5.778;2022-07-17T11:16:48;3.50;;;1.35;;
53519;SDS011;39397;53.204;5.778;2022-07-17T11:21:52;3.40;;;1.23;;
53519;SDS011;39397;53.204;5.778;2022-07-17T11:24:19;5.18;;;1.40;;
53519;SDS011;39397;53.204;5.778;2022-07-17T11:26:48;5.40;;;1.40;;
53519;SDS011;39397;53.204;5.778;2022-07-17T11:29:14;3.17;;;1.38;;
53519;SDS011;39397;53.204;5.778;2022-07-17T11:31:40;5.78;;;1.48;;
53519;SDS011;39397;53.204;5.778;2022-07-17T11:34:08;4.95;;;1.38;;
53519;SDS011;39397;53.204;5.778;2022-07-17T11:36:37;4.30;;;1.23;;
53519;SDS011;39397;53.204;5.778;2022-07-17T11:41:39;3.28;;;1.75;;
53519;SDS011;39397;53.204;5.778;2022-07-17T11:44:10;3.15;;;1.20;;
53519;SDS011;39397;53.204;5.778;2022-07-17T11:46:41;6.68;;;1.60;;
53519;SDS011;39397;53.204;5.778;2022-07-17T11:49:10;4.25;;;1.40;;
53519;SDS011;39397;53.204;5.778;2022-07-17T11:54:07;4.45;;;1.70;;
53519;SDS011;39397;53.204;5.778;2022-07-17T11:56:34;3.05;;;1.30;;
53519;SDS011;39397;53.204;5.778;2022-07-17T11:59:00;6.63;;;1.50;;
53519;SDS011;39397;53.204;5.778;2022-07-17T12:01:37;5.10;;;1.58;;
53519;SDS011;39397;53.204;5.778;2022-07-17T12:04:06;4.15;;;1.58;;
53519;SDS011;39397;53.204;5.778;2022-07-17T12:06:33;3.22;;;1.23;;
53519;SDS011;39397;53.204;5.778;2022-07-17T12:08:59;4.80;;;1.58;;
53519;SDS011;39397;53.204;5.778;2022-07-17T12:11:25;3.25;;;1.35;;
53519;SDS011;39397;53.204;5.778;2022-07-17T12:13:50;4.55;;;1.75;;
53519;SDS011;39397;53.204;5.778;2022-07-17T12:18:54;3.20;;;1.50;;
53519;SDS011;39397;53.204;5.778;2022-07-17T12:21:23;6.25;;;1.65;;
53519;SDS011;39397;53.204;5.778;2022-07-17T12:26:51;3.28;;;1.40;;
53519;SDS011;39397;53.204;5.778;2022-07-17T12:29:17;2.92;;;1.25;;
53519;SDS011;39397;53.204;5.778;2022-07-17T12:31:44;3.47;;;1.60;;
53519;SDS011;39397;53.204;5.778;2022-07-17T12:34:10;4.22;;;1.65;;
53519;SDS011;39397;53.204;5.778;2022-07-17T12:36:36;3.25;;;1.30;;
53519;SDS011;39397;53.204;5.778;2022-07-17T12:39:01;5.32;;;1.40;;
53519;SDS011;39397;53.204;5.778;2022-07-17T12:41:27;2.72;;;1.45;;
53519;SDS011;39397;53.204;5.778;2022-07-17T12:43:53;4.65;;;1.80;;
53519;SDS011;39397;53.204;5.778;2022-07-17T12:46:19;3.40;;;1.60;;
53519;SDS011;39397;53.204;5.778;2022-07-17T12:48:45;3.95;;;1.63;;
53519;SDS011;39397;53.204;5.778;2022-07-17T12:51:11;3.75;;;1.60;;
53519;SDS011;39397;53.204;5.778;2022-07-17T12:53:41;4.15;;;1.50;;
53519;SDS011;39397;53.204;5.778;2022-07-17T12:56:09;4.25;;;1.88;;
53519;SDS011;39397;53.204;5.778;2022-07-17T12:58:35;5.05;;;1.58;;
53519;SDS011;39397;53.204;5.778;2022-07-17T13:01:02;4.80;;;1.80;;
53519;SDS011;39397;53.204;5.778;2022-07-17T13:03:29;5.75;;;2.20;;
53519;SDS011;39397;53.204;5.778;2022-07-17T13:05:54;5.22;;;1.63;;
53519;SDS011;39397;53.204;5.778;2022-07-17T13:08:20;3.42;;;1.40;;
53519;SDS011;39397;53.204;5.778;2022-07-17T13:10:46;5.00;;;1.70;;
53519;SDS011;39397;53.204;5.778;2022-07-17T13:13:11;5.82;;;1.60;;
53519;SDS011;39397;53.204;5.778;2022-07-17T13:15:37;3.72;;;1.60;;
53519;SDS011;39397;53.204;5.778;2022-07-17T13:18:03;3.63;;;1.60;;
53519;SDS011;39397;53.204;5.778;2022-07-17T13:20:29;5.65;;;1.52;;
53519;SDS011;39397;53.204;5.778;2022-07-17T13:22:55;3.53;;;1.70;;
53519;SDS011;39397;53.204;5.778;2022-07-17T13:25:20;4.10;;;1.52;;
53519;SDS011;39397;53.204;5.778;2022-07-17T13:27:46;4.72;;;1.80;;
53519;SDS011;39397;53.204;5.778;2022-07-17T13:30:12;4.18;;;1.70;;
53519;SDS011;39397;53.204;5.778;2022-07-17T13:32:37;4.85;;;1.75;;
53519;SDS011;39397;53.204;5.778;2022-07-17T13:35:04;4.28;;;1.50;;
53519;SDS011;39397;53.204;5.778;2022-07-17T13:37:31;3.90;;;1.63;;
53519;SDS011;39397;53.204;5.778;2022-07-17T13:39:57;4.03;;;1.38;;
53519;SDS011;39397;53.204;5.778;2022-07-17T13:42:23;3.55;;;1.67;;
53519;SDS011;39397;53.204;5.778;2022-07-17T13:44:48;4.55;;;1.58;;
53519;SDS011;39397;53.204;5.778;2022-07-17T13:47:14;4.25;;;1.70;;
53519;SDS011;39397;53.204;5.778;2022-07-17T13:49:40;5.88;;;1.65;;
53519;SDS011;39397;53.204;5.778;2022-07-17T13:52:05;3.28;;;1.50;;
53519;SDS011;39397;53.204;5.778;2022-07-17T13:54:31;4.10;;;1.90;;
53519;SDS011;39397;53.204;5.778;2022-07-17T13:56:57;4.25;;;2.05;;
53519;SDS011;39397;53.204;5.778;2022-07-17T13:59:25;3.90;;;1.80;;
53519;SDS011;39397;53.204;5.778;2022-07-17T14:01:51;5.03;;;1.77;;
53519;SDS011;39397;53.204;5.778;2022-07-17T14:04:17;5.53;;;2.25;;
53519;SDS011;39397;53.204;5.778;2022-07-17T14:06:42;6.85;;;2.28;;
53519;SDS011;39397;53.204;5.778;2022-07-17T14:09:09;4.30;;;1.73;;
53519;SDS011;39397;53.204;5.778;2022-07-17T14:11:35;5.40;;;1.60;;
53519;SDS011;39397;53.204;5.778;2022-07-17T14:14:02;5.22;;;2.03;;
53519;SDS011;39397;53.204;5.778;2022-07-17T14:16:28;5.03;;;1.80;;
53519;SDS011;39397;53.204;5.778;2022-07-17T14:18:53;2.72;;;1.60;;
53519;SDS011;39397;53.204;5.778;2022-07-17T14:21:29;3.47;;;1.45;;
53519;SDS011;39397;53.204;5.778;2022-07-17T14:24:02;4.40;;;1.80;;
53519;SDS011;39397;53.204;5.778;2022-07-17T14:26:29;4.80;;;1.80;;
53519;SDS011;39397;53.204;5.778;2022-07-17T14:28:56;3.70;;;1.65;;
53519;SDS011;39397;53.204;5.778;2022-07-17T14:31:22;5.93;;;2.15;;
53519;SDS011;39397;53.204;5.778;2022-07-17T14:33:48;4.53;;;2.00;;
53519;SDS011;39397;53.204;5.778;2022-07-17T14:36:14;3.38;;;1.80;;
53519;SDS011;39397;53.204;5.778;2022-07-17T14:38:40;4.90;;;1.90;;
53519;SDS011;39397;53.204;5.778;2022-07-17T14:41:06;3.20;;;1.65;;
53519;SDS011;39397;53.204;5.778;2022-07-17T14:43:31;3.85;;;1.85;;
53519;SDS011;39397;53.204;5.778;2022-07-17T14:45:57;3.97;;;2.00;;
53519;SDS011;39397;53.204;5.778;2022-07-17T14:48:23;5.70;;;1.90;;
53519;SDS011;39397;53.204;5.778;2022-07-17T14:50:48;3.42;;;1.90;;
53519;SDS011;39397;53.204;5.778;2022-07-17T14:53:14;3.92;;;1.83;;
53519;SDS011;39397;53.204;5.778;2022-07-17T14:55:40;3.45;;;1.58;;
53519;SDS011;39397;53.204;5.778;2022-07-17T14:58:06;3.58;;;1.80;;
53519;SDS011;39397;53.204;5.778;2022-07-17T15:00:31;3.63;;;2.00;;
53519;SDS011;39397;53.204;5.778;2022-07-17T15:02:57;23.27;;;21.52;;
53519;SDS011;39397;53.204;5.778;2022-07-17T15:05:23;6.07;;;5.43;;
53519;SDS011;39397;53.204;5.778;2022-07-17T15:07:49;15.25;;;13.85;;
53519;SDS011;39397;53.204;5.778;2022-07-17T15:10:15;29.08;;;26.70;;
53519;SDS011;39397;53.204;5.778;2022-07-17T15:12:40;40.03;;;36.75;;
53519;SDS011;39397;53.204;5.778;2022-07-17T15:15:06;14.93;;;13.63;;
53519;SDS011;39397;53.204;5.778;2022-07-17T15:17:32;5.38;;;3.85;;
53519;SDS011;39397;53.204;5.778;2022-07-17T15:19:58;5.50;;;2.28;;
53519;SDS011;39397;53.204;5.778;2022-07-17T15:22:23;4.10;;;2.13;;
53519;SDS011;39397;53.204;5.778;2022-07-17T15:24:49;4.90;;;2.33;;
53519;SDS011;39397;53.204;5.778;2022-07-17T15:27:15;4.45;;;2.60;;
53519;SDS011;39397;53.204;5.778;2022-07-17T15:29:41;4.43;;;2.63;;
53519;SDS011;39397;53.204;5.778;2022-07-17T15:32:07;6.50;;;2.50;;